sensor_id;sensor_type;location;lat;lon;timestamp;P1;P2;P0
64138;PMS5003;50435;43.700;-79.318;2022-09-20T00:01:51;4;4;
64138;PMS5003;50435;43.700;-79.318;2022-09-20T00:04:18;7;6;
64138;PMS5003;50435;43.700;-79.318;2022-09-20T00:06:46;3;3;
64138;PMS5003;50435;43.700;-79.318;2022-09-20T00:09:13;8;6;
64138;PMS5003;50435;43.700;-79.318;2022-09-20T00:11:41;4;4;
64138;PMS5003;50435;43.700;-79.318;2022-09-20T00:14:08;6;5;
64138;PMS5003;50435;43.700;-79.318;2022-09-20T00:16:36;8;7;
64138;PMS5003;50435;43.700;-79.318;2022-09-20T00:19:06;4;4;
64138;PMS5003;50435;43.700;-79.318;2022-09-20T00:21:34;5;3;
64138;PMS5003;50435;43.700;-79.318;2022-09-20T00:24:02;6;5;
64138;PMS5003;50435;43.700;-79.318;2022-09-20T00:26:30;5;3;
64138;PMS5003;50435;43.700;-79.318;2022-09-20T00:28:57;7;5;
64138;PMS5003;50435;43.700;-79.318;2022-09-20T00:31:25;8;5;
64138;PMS5003;50435;43.700;-79.318;2022-09-20T00:33:53;3;3;
64138;PMS5003;50435;43.700;-79.318;2022-09-20T00:36:22;4;4;
64138;PMS5003;50435;43.700;-79.318;2022-09-20T00:38:53;3;3;
64138;PMS5003;50435;43.700;-79.318;2022-09-20T00:41:21;4;3;
64138;PMS5003;50435;43.700;-79.318;2022-09-20T00:43:49;4;4;
64138;PMS5003;50435;43.700;-79.318;2022-09-20T00:46:20;3;3;
64138;PMS5003;50435;43.700;-79.318;2022-09-20T00:48:52;5;5;
64138;PMS5003;50435;43.700;-79.318;2022-09-20T00:51:24;6;4;
64138;PMS5003;50435;43.700;-79.318;2022-09-20T00:53:55;5;5;
64138;PMS5003;50435;43.700;-79.318;2022-09-20T00:56:28;4;4;
64138;PMS5003;50435;43.700;-79.318;2022-09-20T00:59:02;3;3;
64138;PMS5003;50435;43.700;-79.318;2022-09-20T01:01:35;6;5;
64138;PMS5003;50435;43.700;-79.318;2022-09-20T01:04:03;3;3;
64138;PMS5003;50435;43.700;-79.318;2022-09-20T01:06:30;5;5;
64138;PMS5003;50435;43.700;-79.318;2022-09-20T01:09:00;4;4;
64138;PMS5003;50435;43.700;-79.318;2022-09-20T01:11:30;5;5;
64138;PMS5003;50435;43.700;-79.318;2022-09-20T01:14:00;7;5;
64138;PMS5003;50435;43.700;-79.318;2022-09-20T01:16:27;5;5;
64138;PMS5003;50435;43.700;-79.318;2022-09-20T01:18:57;5;5;
64138;PMS5003;50435;43.700;-79.318;2022-09-20T01:21:31;4;4;
64138;PMS5003;50435;43.700;-79.318;2022-09-20T01:24:00;5;5;
64138;PMS5003;50435;43.700;-79.318;2022-09-20T01:26:36;3;3;
64138;PMS5003;50435;43.700;-79.318;2022-09-20T01:29:23;3;3;
64138;PMS5003;50435;43.700;-79.318;2022-09-20T01:32:02;4;4;
64138;PMS5003;50435;43.700;-79.318;2022-09-20T01:34:37;4;4;
64138;PMS5003;50435;43.700;-79.318;2022-09-20T01:37:12;4;4;
64138;PMS5003;50435;43.700;-79.318;2022-09-20T01:39:46;6;6;
64138;PMS5003;50435;43.700;-79.318;2022-09-20T01:42:20;4;4;
64138;PMS5003;50435;43.700;-79.318;2022-09-20T01:44:55;7;7;
64138;PMS5003;50435;43.700;-79.318;2022-09-20T01:47:30;5;5;
64138;PMS5003;50435;43.700;-79.318;2022-09-20T01:50:08;7;5;
64138;PMS5003;50435;43.700;-79.318;2022-09-20T01:52:57;7;5;
64138;PMS5003;50435;43.700;-79.318;2022-09-20T01:55:48;4;4;
64138;PMS5003;50435;43.700;-79.318;2022-09-20T01:59:25;5;4;
64138;PMS5003;50435;43.700;-79.318;2022-09-20T02:02:27;7;5;
64138;PMS5003;50435;43.700;-79.318;2022-09-20T02:05:11;5;5;
64138;PMS5003;50435;43.700;-79.318;2022-09-20T02:08:28;4;4;
64138;PMS5003;50435;43.700;-79.318;2022-09-20T02:11:12;6;5;
64138;PMS5003;50435;43.700;-79.318;2022-09-20T02:13:48;6;6;
64138;PMS5003;50435;43.700;-79.318;2022-09-20T02:16:30;7;6;
64138;PMS5003;50435;43.700;-79.318;2022-09-20T02:19:15;7;5;
64138;PMS5003;50435;43.700;-79.318;2022-09-20T02:22:05;5;5;
64138;PMS5003;50435;43.700;-79.318;2022-09-20T02:24:44;7;5;
64138;PMS5003;50435;43.700;-79.318;2022-09-20T02:27:20;6;6;
64138;PMS5003;50435;43.700;-79.318;2022-09-20T02:29:57;4;4;
64138;PMS5003;50435;43.700;-79.318;2022-09-20T02:32:40;6;6;
64138;PMS5003;50435;43.700;-79.318;2022-09-20T02:35:25;5;5;
64138;PMS5003;50435;43.700;-79.318;2022-09-20T02:38:05;7;6;
64138;PMS5003;50435;43.700;-79.318;2022-09-20T02:41:32;7;6;
64138;PMS5003;50435;43.700;-79.318;2022-09-20T02:44:14;8;7;
64138;PMS5003;50435;43.700;-79.318;2022-09-20T02:46:52;6;5;
64138;PMS5003;50435;43.700;-79.318;2022-09-20T02:49:27;7;7;
64138;PMS5003;50435;43.700;-79.318;2022-09-20T02:52:03;8;8;
64138;PMS5003;50435;43.700;-79.318;2022-09-20T02:54:41;6;5;
64138;PMS5003;50435;43.700;-79.318;2022-09-20T02:57:19;5;5;
64138;PMS5003;50435;43.700;-79.318;2022-09-20T02:59:53;6;6;
64138;PMS5003;50435;43.700;-79.318;2022-09-20T03:02:29;7;6;
64138;PMS5003;50435;43.700;-79.318;2022-09-20T03:05:11;7;5;
64138;PMS5003;50435;43.700;-79.318;2022-09-20T03:07:48;6;6;
64138;PMS5003;50435;43.700;-79.318;2022-09-20T03:10:29;6;5;
64138;PMS5003;50435;43.700;-79.318;2022-09-20T03:13:09;7;7;
64138;PMS5003;50435;43.700;-79.318;2022-09-20T03:15:47;5;5;
64138;PMS5003;50435;43.700;-79.318;2022-09-20T03:18:28;7;7;
64138;PMS5003;50435;43.700;-79.318;2022-09-20T03:21:07;7;7;
64138;PMS5003;50435;43.700;-79.318;2022-09-20T03:23:50;6;6;
64138;PMS5003;50435;43.700;-79.318;2022-09-20T03:26:29;3;3;
64138;PMS5003;50435;43.700;-79.318;2022-09-20T03:29:07;6;5;
64138;PMS5003;50435;43.700;-79.318;2022-09-20T03:31:45;6;5;
64138;PMS5003;50435;43.700;-79.318;2022-09-20T03:34:31;5;5;
64138;PMS5003;50435;43.700;-79.318;2022-09-20T03:37:09;6;6;
64138;PMS5003;50435;43.700;-79.318;2022-09-20T03:39:56;6;6;
64138;PMS5003;50435;43.700;-79.318;2022-09-20T03:43:04;7;7;
64138;PMS5003;50435;43.700;-79.318;2022-09-20T03:45:46;4;4;
64138;PMS5003;50435;43.700;-79.318;2022-09-20T03:49:17;7;5;
64138;PMS5003;50435;43.700;-79.318;2022-09-20T03:52:00;6;6;
64138;PMS5003;50435;43.700;-79.318;2022-09-20T03:54:47;6;5;
64138;PMS5003;50435;43.700;-79.318;2022-09-20T03:57:34;6;6;
64138;PMS5003;50435;43.700;-79.318;2022-09-20T04:00:15;10;8;
64138;PMS5003;50435;43.700;-79.318;2022-09-20T04:02:54;7;7;
64138;PMS5003;50435;43.700;-79.318;2022-09-20T04:05:35;7;7;
64138;PMS5003;50435;43.700;-79.318;2022-09-20T04:08:16;4;4;
64138;PMS5003;50435;43.700;-79.318;2022-09-20T04:10:58;7;7;
64138;PMS5003;50435;43.700;-79.318;2022-09-20T04:13:34;6;6;
64138;PMS5003;50435;43.700;-79.318;2022-09-20T04:16:06;6;6;
64138;PMS5003;50435;43.700;-79.318;2022-09-20T04:18:45;10;9;
64138;PMS5003;50435;43.700;-79.318;2022-09-20T04:21:21;6;5;
64138;PMS5003;50435;43.700;-79.318;2022-09-20T04:23:58;7;7;
64138;PMS5003;50435;43.700;-79.318;2022-09-20T04:26:30;8;7;
64138;PMS5003;50435;43.700;-79.318;2022-09-20T04:29:07;10;10;
64138;PMS5003;50435;43.700;-79.318;2022-09-20T04:31:46;9;6;
64138;PMS5003;50435;43.700;-79.318;2022-09-20T04:34:22;10;8;
64138;PMS5003;50435;43.700;-79.318;2022-09-20T04:36:57;8;8;
64138;PMS5003;50435;43.700;-79.318;2022-09-20T04:39:32;7;5;
64138;PMS5003;50435;43.700;-79.318;2022-09-20T04:43:15;7;7;
64138;PMS5003;50435;43.700;-79.318;2022-09-20T04:46:13;7;7;
64138;PMS5003;50435;43.700;-79.318;2022-09-20T04:49:28;9;8;
64138;PMS5003;50435;43.700;-79.318;2022-09-20T04:52:20;6;6;
64138;PMS5003;50435;43.700;-79.318;2022-09-20T04:55:23;9;9;
64138;PMS5003;50435;43.700;-79.318;2022-09-20T04:58:15;10;9;
64138;PMS5003;50435;43.700;-79.318;2022-09-20T05:01:01;9;9;
64138;PMS5003;50435;43.700;-79.318;2022-09-20T05:04:00;7;7;
64138;PMS5003;50435;43.700;-79.318;2022-09-20T05:06:56;8;8;
64138;PMS5003;50435;43.700;-79.318;2022-09-20T05:09:48;9;9;
64138;PMS5003;50435;43.700;-79.318;2022-09-20T05:12:34;6;6;
64138;PMS5003;50435;43.700;-79.318;2022-09-20T05:15:20;7;7;
64138;PMS5003;50435;43.700;-79.318;2022-09-20T05:18:04;9;5;
64138;PMS5003;50435;43.700;-79.318;2022-09-20T05:20:53;11;10;
64138;PMS5003;50435;43.700;-79.318;2022-09-20T05:23:38;8;8;
64138;PMS5003;50435;43.700;-79.318;2022-09-20T05:26:18;5;5;
64138;PMS5003;50435;43.700;-79.318;2022-09-20T05:28:55;5;5;
64138;PMS5003;50435;43.700;-79.318;2022-09-20T05:31:31;9;8;
64138;PMS5003;50435;43.700;-79.318;2022-09-20T05:34:06;8;8;
64138;PMS5003;50435;43.700;-79.318;2022-09-20T05:36:44;8;8;
64138;PMS5003;50435;43.700;-79.318;2022-09-20T05:39:22;8;7;
64138;PMS5003;50435;43.700;-79.318;2022-09-20T05:42:00;8;7;
64138;PMS5003;50435;43.700;-79.318;2022-09-20T05:44:43;7;6;
64138;PMS5003;50435;43.700;-79.318;2022-09-20T05:47:30;8;7;
64138;PMS5003;50435;43.700;-79.318;2022-09-20T05:50:15;6;6;
64138;PMS5003;50435;43.700;-79.318;2022-09-20T05:53:05;8;7;
64138;PMS5003;50435;43.700;-79.318;2022-09-20T05:55:46;10;9;
64138;PMS5003;50435;43.700;-79.318;2022-09-20T05:58:32;7;7;
64138;PMS5003;50435;43.700;-79.318;2022-09-20T06:01:08;7;6;
64138;PMS5003;50435;43.700;-79.318;2022-09-20T06:03:41;11;8;
64138;PMS5003;50435;43.700;-79.318;2022-09-20T06:06:13;6;6;
64138;PMS5003;50435;43.700;-79.318;2022-09-20T06:08:53;5;5;
64138;PMS5003;50435;43.700;-79.318;2022-09-20T06:11:52;10;6;
64138;PMS5003;50435;43.700;-79.318;2022-09-20T06:14:32;7;7;
64138;PMS5003;50435;43.700;-79.318;2022-09-20T06:17:10;8;8;
64138;PMS5003;50435;43.700;-79.318;2022-09-20T06:19:49;8;8;
64138;PMS5003;50435;43.700;-79.318;2022-09-20T06:22:26;8;7;
64138;PMS5003;50435;43.700;-79.318;2022-09-20T06:24:58;7;5;
64138;PMS5003;50435;43.700;-79.318;2022-09-20T06:27:31;7;7;
64138;PMS5003;50435;43.700;-79.318;2022-09-20T06:30:04;7;7;
64138;PMS5003;50435;43.700;-79.318;2022-09-20T06:32:51;9;7;
64138;PMS5003;50435;43.700;-79.318;2022-09-20T06:35:20;10;10;
64138;PMS5003;50435;43.700;-79.318;2022-09-20T06:37:53;8;8;
64138;PMS5003;50435;43.700;-79.318;2022-09-20T06:40:31;7;7;
64138;PMS5003;50435;43.700;-79.318;2022-09-20T06:43:04;9;9;
64138;PMS5003;50435;43.700;-79.318;2022-09-20T06:45:32;10;8;
64138;PMS5003;50435;43.700;-79.318;2022-09-20T06:48:00;8;6;
64138;PMS5003;50435;43.700;-79.318;2022-09-20T06:50:27;8;7;
64138;PMS5003;50435;43.700;-79.318;2022-09-20T06:52:55;7;7;
64138;PMS5003;50435;43.700;-79.318;2022-09-20T06:55:25;15;12;
64138;PMS5003;50435;43.700;-79.318;2022-09-20T06:57:55;8;8;
64138;PMS5003;50435;43.700;-79.318;2022-09-20T07:00:22;10;8;
64138;PMS5003;50435;43.700;-79.318;2022-09-20T07:02:50;9;8;
64138;PMS5003;50435;43.700;-79.318;2022-09-20T07:05:17;7;7;
64138;PMS5003;50435;43.700;-79.318;2022-09-20T07:07:45;7;7;
64138;PMS5003;50435;43.700;-79.318;2022-09-20T07:10:12;8;8;
64138;PMS5003;50435;43.700;-79.318;2022-09-20T07:12:40;8;7;
64138;PMS5003;50435;43.700;-79.318;2022-09-20T07:15:08;8;8;
64138;PMS5003;50435;43.700;-79.318;2022-09-20T07:17:36;11;11;
64138;PMS5003;50435;43.700;-79.318;2022-09-20T07:20:03;7;7;
64138;PMS5003;50435;43.700;-79.318;2022-09-20T07:22:32;9;8;
64138;PMS5003;50435;43.700;-79.318;2022-09-20T07:24:59;8;7;
64138;PMS5003;50435;43.700;-79.318;2022-09-20T07:27:27;13;10;
64138;PMS5003;50435;43.700;-79.318;2022-09-20T07:29:54;8;8;
64138;PMS5003;50435;43.700;-79.318;2022-09-20T07:32:22;9;9;
64138;PMS5003;50435;43.700;-79.318;2022-09-20T07:34:49;9;7;
64138;PMS5003;50435;43.700;-79.318;2022-09-20T07:37:17;8;8;
64138;PMS5003;50435;43.700;-79.318;2022-09-20T07:39:45;10;7;
64138;PMS5003;50435;43.700;-79.318;2022-09-20T07:42:12;13;9;
64138;PMS5003;50435;43.700;-79.318;2022-09-20T07:44:40;10;9;
64138;PMS5003;50435;43.700;-79.318;2022-09-20T07:47:08;6;6;
64138;PMS5003;50435;43.700;-79.318;2022-09-20T07:49:36;7;7;
64138;PMS5003;50435;43.700;-79.318;2022-09-20T07:52:03;9;8;
64138;PMS5003;50435;43.700;-79.318;2022-09-20T07:54:31;7;7;
64138;PMS5003;50435;43.700;-79.318;2022-09-20T07:56:58;10;9;
64138;PMS5003;50435;43.700;-79.318;2022-09-20T07:59:25;12;9;
64138;PMS5003;50435;43.700;-79.318;2022-09-20T08:01:53;11;8;
64138;PMS5003;50435;43.700;-79.318;2022-09-20T08:04:21;9;8;
64138;PMS5003;50435;43.700;-79.318;2022-09-20T08:06:48;8;7;
64138;PMS5003;50435;43.700;-79.318;2022-09-20T08:09:16;10;10;
64138;PMS5003;50435;43.700;-79.318;2022-09-20T08:11:44;9;6;
64138;PMS5003;50435;43.700;-79.318;2022-09-20T08:14:12;8;8;
64138;PMS5003;50435;43.700;-79.318;2022-09-20T08:16:42;10;9;
64138;PMS5003;50435;43.700;-79.318;2022-09-20T08:19:13;8;8;
64138;PMS5003;50435;43.700;-79.318;2022-09-20T08:21:41;12;9;
64138;PMS5003;50435;43.700;-79.318;2022-09-20T08:24:09;10;10;
64138;PMS5003;50435;43.700;-79.318;2022-09-20T08:26:36;14;12;
64138;PMS5003;50435;43.700;-79.318;2022-09-20T08:29:04;9;9;
64138;PMS5003;50435;43.700;-79.318;2022-09-20T08:31:32;11;9;
64138;PMS5003;50435;43.700;-79.318;2022-09-20T08:34:02;12;11;
64138;PMS5003;50435;43.700;-79.318;2022-09-20T08:36:32;13;11;
64138;PMS5003;50435;43.700;-79.318;2022-09-20T08:39:00;12;10;
64138;PMS5003;50435;43.700;-79.318;2022-09-20T08:41:29;9;8;
64138;PMS5003;50435;43.700;-79.318;2022-09-20T08:44:01;13;11;
64138;PMS5003;50435;43.700;-79.318;2022-09-20T08:46:32;11;9;
64138;PMS5003;50435;43.700;-79.318;2022-09-20T08:49:05;10;10;
64138;PMS5003;50435;43.700;-79.318;2022-09-20T08:51:37;11;10;
64138;PMS5003;50435;43.700;-79.318;2022-09-20T08:54:08;12;8;
64138;PMS5003;50435;43.700;-79.318;2022-09-20T08:56:38;8;8;
64138;PMS5003;50435;43.700;-79.318;2022-09-20T08:59:07;9;9;
64138;PMS5003;50435;43.700;-79.318;2022-09-20T09:01:40;12;8;
64138;PMS5003;50435;43.700;-79.318;2022-09-20T09:04:10;11;8;
64138;PMS5003;50435;43.700;-79.318;2022-09-20T09:06:40;8;8;
64138;PMS5003;50435;43.700;-79.318;2022-09-20T09:09:10;11;10;
64138;PMS5003;50435;43.700;-79.318;2022-09-20T09:11:43;10;10;
64138;PMS5003;50435;43.700;-79.318;2022-09-20T09:14:14;11;9;
64138;PMS5003;50435;43.700;-79.318;2022-09-20T09:16:48;10;9;
64138;PMS5003;50435;43.700;-79.318;2022-09-20T09:19:32;11;11;
64138;PMS5003;50435;43.700;-79.318;2022-09-20T09:22:09;11;10;
64138;PMS5003;50435;43.700;-79.318;2022-09-20T09:24:37;9;9;
64138;PMS5003;50435;43.700;-79.318;2022-09-20T09:27:05;11;10;
64138;PMS5003;50435;43.700;-79.318;2022-09-20T09:29:40;7;7;
64138;PMS5003;50435;43.700;-79.318;2022-09-20T09:32:20;7;7;
64138;PMS5003;50435;43.700;-79.318;2022-09-20T09:34:50;11;10;
64138;PMS5003;50435;43.700;-79.318;2022-09-20T09:37:22;11;10;
64138;PMS5003;50435;43.700;-79.318;2022-09-20T09:40:04;8;8;
64138;PMS5003;50435;43.700;-79.318;2022-09-20T09:42:46;12;11;
64138;PMS5003;50435;43.700;-79.318;2022-09-20T09:45:24;10;9;
64138;PMS5003;50435;43.700;-79.318;2022-09-20T09:47:55;10;9;
64138;PMS5003;50435;43.700;-79.318;2022-09-20T09:50:24;11;9;
64138;PMS5003;50435;43.700;-79.318;2022-09-20T09:52:58;16;13;
64138;PMS5003;50435;43.700;-79.318;2022-09-20T09:55:30;10;10;
64138;PMS5003;50435;43.700;-79.318;2022-09-20T09:58:09;14;12;
64138;PMS5003;50435;43.700;-79.318;2022-09-20T10:00:45;12;8;
64138;PMS5003;50435;43.700;-79.318;2022-09-20T10:03:18;11;11;
64138;PMS5003;50435;43.700;-79.318;2022-09-20T10:05:57;12;12;
64138;PMS5003;50435;43.700;-79.318;2022-09-20T10:08:35;15;11;
64138;PMS5003;50435;43.700;-79.318;2022-09-20T10:11:14;8;8;
64138;PMS5003;50435;43.700;-79.318;2022-09-20T10:13:54;12;11;
64138;PMS5003;50435;43.700;-79.318;2022-09-20T10:16:34;10;10;
64138;PMS5003;50435;43.700;-79.318;2022-09-20T10:19:19;10;8;
64138;PMS5003;50435;43.700;-79.318;2022-09-20T10:21:53;11;10;
64138;PMS5003;50435;43.700;-79.318;2022-09-20T10:24:29;10;9;
64138;PMS5003;50435;43.700;-79.318;2022-09-20T10:27:15;10;9;
64138;PMS5003;50435;43.700;-79.318;2022-09-20T10:29:55;10;9;
64138;PMS5003;50435;43.700;-79.318;2022-09-20T10:32:33;12;8;
64138;PMS5003;50435;43.700;-79.318;2022-09-20T10:35:12;13;12;
64138;PMS5003;50435;43.700;-79.318;2022-09-20T10:37:52;9;7;
64138;PMS5003;50435;43.700;-79.318;2022-09-20T10:40:30;9;7;
64138;PMS5003;50435;43.700;-79.318;2022-09-20T10:43:04;7;7;
64138;PMS5003;50435;43.700;-79.318;2022-09-20T10:45:41;8;8;
64138;PMS5003;50435;43.700;-79.318;2022-09-20T10:48:19;11;9;
64138;PMS5003;50435;43.700;-79.318;2022-09-20T10:50:54;12;10;
64138;PMS5003;50435;43.700;-79.318;2022-09-20T10:53:27;12;10;
64138;PMS5003;50435;43.700;-79.318;2022-09-20T10:56:08;9;9;
64138;PMS5003;50435;43.700;-79.318;2022-09-20T10:58:54;7;7;
64138;PMS5003;50435;43.700;-79.318;2022-09-20T11:01:37;10;9;
64138;PMS5003;50435;43.700;-79.318;2022-09-20T11:04:17;9;9;
64138;PMS5003;50435;43.700;-79.318;2022-09-20T11:07:05;16;14;
64138;PMS5003;50435;43.700;-79.318;2022-09-20T11:09:37;8;8;
64138;PMS5003;50435;43.700;-79.318;2022-09-20T11:12:10;10;8;
64138;PMS5003;50435;43.700;-79.318;2022-09-20T11:14:44;13;13;
64138;PMS5003;50435;43.700;-79.318;2022-09-20T11:17:19;8;8;
64138;PMS5003;50435;43.700;-79.318;2022-09-20T11:19:54;9;9;
64138;PMS5003;50435;43.700;-79.318;2022-09-20T11:22:27;10;9;
64138;PMS5003;50435;43.700;-79.318;2022-09-20T11:25:01;10;10;
64138;PMS5003;50435;43.700;-79.318;2022-09-20T11:27:38;7;7;
64138;PMS5003;50435;43.700;-79.318;2022-09-20T11:30:14;9;8;
64138;PMS5003;50435;43.700;-79.318;2022-09-20T11:32:45;7;6;
64138;PMS5003;50435;43.700;-79.318;2022-09-20T11:35:20;10;10;
64138;PMS5003;50435;43.700;-79.318;2022-09-20T11:37:56;8;8;
64138;PMS5003;50435;43.700;-79.318;2022-09-20T11:40:28;6;6;
64138;PMS5003;50435;43.700;-79.318;2022-09-20T11:43:00;9;8;
64138;PMS5003;50435;43.700;-79.318;2022-09-20T11:45:30;8;8;
64138;PMS5003;50435;43.700;-79.318;2022-09-20T11:48:00;7;7;
64138;PMS5003;50435;43.700;-79.318;2022-09-20T11:50:39;7;7;
64138;PMS5003;50435;43.700;-79.318;2022-09-20T11:53:21;8;8;
64138;PMS5003;50435;43.700;-79.318;2022-09-20T11:56:02;7;6;
64138;PMS5003;50435;43.700;-79.318;2022-09-20T11:58:39;8;8;
64138;PMS5003;50435;43.700;-79.318;2022-09-20T12:01:11;11;10;
64138;PMS5003;50435;43.700;-79.318;2022-09-20T12:03:42;7;6;
64138;PMS5003;50435;43.700;-79.318;2022-09-20T12:06:24;9;8;
64138;PMS5003;50435;43.700;-79.318;2022-09-20T12:08:56;9;9;
64138;PMS5003;50435;43.700;-79.318;2022-09-20T12:11:26;7;7;
64138;PMS5003;50435;43.700;-79.318;2022-09-20T12:14:00;8;8;
64138;PMS5003;50435;43.700;-79.318;2022-09-20T12:16:39;7;7;
64138;PMS5003;50435;43.700;-79.318;2022-09-20T12:19:09;7;6;
64138;PMS5003;50435;43.700;-79.318;2022-09-20T12:22:42;9;8;
64138;PMS5003;50435;43.700;-79.318;2022-09-20T12:25:57;10;9;
64138;PMS5003;50435;43.700;-79.318;2022-09-20T12:28:31;12;8;
64138;PMS5003;50435;43.700;-79.318;2022-09-20T12:32:28;8;7;
64138;PMS5003;50435;43.700;-79.318;2022-09-20T12:35:52;7;7;
64138;PMS5003;50435;43.700;-79.318;2022-09-20T12:38:32;6;6;
64138;PMS5003;50435;43.700;-79.318;2022-09-20T12:41:04;7;7;
64138;PMS5003;50435;43.700;-79.318;2022-09-20T12:43:36;8;6;
64138;PMS5003;50435;43.700;-79.318;2022-09-20T12:46:18;7;7;
64138;PMS5003;50435;43.700;-79.318;2022-09-20T12:48:49;5;5;
64138;PMS5003;50435;43.700;-79.318;2022-09-20T12:51:18;10;9;
64138;PMS5003;50435;43.700;-79.318;2022-09-20T12:54:03;5;5;
64138;PMS5003;50435;43.700;-79.318;2022-09-20T12:56:34;8;8;
64138;PMS5003;50435;43.700;-79.318;2022-09-20T12:59:03;9;8;
64138;PMS5003;50435;43.700;-79.318;2022-09-20T13:01:34;7;7;
64138;PMS5003;50435;43.700;-79.318;2022-09-20T13:05:01;7;7;
64138;PMS5003;50435;43.700;-79.318;2022-09-20T13:07:43;7;6;
64138;PMS5003;50435;43.700;-79.318;2022-09-20T13:10:21;6;6;
64138;PMS5003;50435;43.700;-79.318;2022-09-20T13:12:54;4;4;
64138;PMS5003;50435;43.700;-79.318;2022-09-20T13:15:26;7;7;
64138;PMS5003;50435;43.700;-79.318;2022-09-20T13:17:55;9;6;
64138;PMS5003;50435;43.700;-79.318;2022-09-20T13:20:27;5;5;
64138;PMS5003;50435;43.700;-79.318;2022-09-20T13:22:57;8;6;
64138;PMS5003;50435;43.700;-79.318;2022-09-20T13:25:26;3;3;
64138;PMS5003;50435;43.700;-79.318;2022-09-20T13:27:56;5;5;
64138;PMS5003;50435;43.700;-79.318;2022-09-20T13:30:31;6;3;
64138;PMS5003;50435;43.700;-79.318;2022-09-20T13:33:13;7;5;
64138;PMS5003;50435;43.700;-79.318;2022-09-20T13:35:43;5;4;
64138;PMS5003;50435;43.700;-79.318;2022-09-20T13:38:13;4;4;
64138;PMS5003;50435;43.700;-79.318;2022-09-20T13:40:44;5;5;
64138;PMS5003;50435;43.700;-79.318;2022-09-20T13:43:16;4;4;
64138;PMS5003;50435;43.700;-79.318;2022-09-20T13:45:52;7;5;
64138;PMS5003;50435;43.700;-79.318;2022-09-20T13:48:22;4;3;
64138;PMS5003;50435;43.700;-79.318;2022-09-20T13:50:51;4;4;
64138;PMS5003;50435;43.700;-79.318;2022-09-20T13:53:20;7;4;
64138;PMS5003;50435;43.700;-79.318;2022-09-20T13:55:49;4;4;
64138;PMS5003;50435;43.700;-79.318;2022-09-20T13:58:18;4;4;
64138;PMS5003;50435;43.700;-79.318;2022-09-20T14:00:50;4;4;
64138;PMS5003;50435;43.700;-79.318;2022-09-20T14:03:19;2;2;
64138;PMS5003;50435;43.700;-79.318;2022-09-20T14:05:49;5;4;
64138;PMS5003;50435;43.700;-79.318;2022-09-20T14:08:20;4;4;
64138;PMS5003;50435;43.700;-79.318;2022-09-20T14:11:01;4;4;
64138;PMS5003;50435;43.700;-79.318;2022-09-20T14:13:31;2;2;
64138;PMS5003;50435;43.700;-79.318;2022-09-20T14:16:05;3;3;
64138;PMS5003;50435;43.700;-79.318;2022-09-20T14:18:34;4;4;
64138;PMS5003;50435;43.700;-79.318;2022-09-20T14:21:04;5;3;
64138;PMS5003;50435;43.700;-79.318;2022-09-20T14:23:46;6;5;
64138;PMS5003;50435;43.700;-79.318;2022-09-20T14:26:21;5;4;
64138;PMS5003;50435;43.700;-79.318;2022-09-20T14:28:50;4;4;
64138;PMS5003;50435;43.700;-79.318;2022-09-20T14:31:19;5;3;
64138;PMS5003;50435;43.700;-79.318;2022-09-20T14:33:51;4;4;
64138;PMS5003;50435;43.700;-79.318;2022-09-20T14:36:21;6;5;
64138;PMS5003;50435;43.700;-79.318;2022-09-20T14:38:51;5;4;
64138;PMS5003;50435;43.700;-79.318;2022-09-20T14:41:25;6;3;
64138;PMS5003;50435;43.700;-79.318;2022-09-20T14:43:54;5;5;
64138;PMS5003;50435;43.700;-79.318;2022-09-20T14:46:28;8;7;
64138;PMS5003;50435;43.700;-79.318;2022-09-20T14:49:17;4;4;
64138;PMS5003;50435;43.700;-79.318;2022-09-20T14:51:46;3;3;
64138;PMS5003;50435;43.700;-79.318;2022-09-20T14:54:20;5;5;
64138;PMS5003;50435;43.700;-79.318;2022-09-20T14:56:51;5;5;
64138;PMS5003;50435;43.700;-79.318;2022-09-20T14:59:21;4;4;
64138;PMS5003;50435;43.700;-79.318;2022-09-20T15:01:55;5;2;
64138;PMS5003;50435;43.700;-79.318;2022-09-20T15:04:27;4;4;
64138;PMS5003;50435;43.700;-79.318;2022-09-20T15:06:55;4;4;
64138;PMS5003;50435;43.700;-79.318;2022-09-20T15:09:25;5;5;
64138;PMS5003;50435;43.700;-79.318;2022-09-20T15:12:01;7;5;
64138;PMS5003;50435;43.700;-79.318;2022-09-20T15:14:31;3;3;
64138;PMS5003;50435;43.700;-79.318;2022-09-20T15:16:59;4;4;
64138;PMS5003;50435;43.700;-79.318;2022-09-20T15:19:26;4;3;
64138;PMS5003;50435;43.700;-79.318;2022-09-20T15:21:55;6;4;
64138;PMS5003;50435;43.700;-79.318;2022-09-20T15:24:22;4;4;
64138;PMS5003;50435;43.700;-79.318;2022-09-20T15:26:50;3;3;
64138;PMS5003;50435;43.700;-79.318;2022-09-20T15:29:17;3;3;
64138;PMS5003;50435;43.700;-79.318;2022-09-20T15:31:45;2;2;
64138;PMS5003;50435;43.700;-79.318;2022-09-20T15:34:14;4;3;
64138;PMS5003;50435;43.700;-79.318;2022-09-20T15:36:41;1;1;
64138;PMS5003;50435;43.700;-79.318;2022-09-20T15:39:09;5;2;
64138;PMS5003;50435;43.700;-79.318;2022-09-20T15:41:36;2;2;
64138;PMS5003;50435;43.700;-79.318;2022-09-20T15:44:04;1;1;
64138;PMS5003;50435;43.700;-79.318;2022-09-20T15:46:32;5;5;
64138;PMS5003;50435;43.700;-79.318;2022-09-20T15:49:00;0;0;
64138;PMS5003;50435;43.700;-79.318;2022-09-20T15:51:29;2;2;
64138;PMS5003;50435;43.700;-79.318;2022-09-20T15:53:57;3;3;
64138;PMS5003;50435;43.700;-79.318;2022-09-20T15:56:26;1;1;
64138;PMS5003;50435;43.700;-79.318;2022-09-20T15:58:55;3;3;
64138;PMS5003;50435;43.700;-79.318;2022-09-20T16:01:24;2;2;
64138;PMS5003;50435;43.700;-79.318;2022-09-20T16:03:52;6;5;
64138;PMS5003;50435;43.700;-79.318;2022-09-20T16:06:21;2;2;
64138;PMS5003;50435;43.700;-79.318;2022-09-20T16:08:49;2;2;
64138;PMS5003;50435;43.700;-79.318;2022-09-20T16:11:18;5;2;
64138;PMS5003;50435;43.700;-79.318;2022-09-20T16:13:50;3;3;
64138;PMS5003;50435;43.700;-79.318;2022-09-20T16:16:18;2;2;
64138;PMS5003;50435;43.700;-79.318;2022-09-20T16:18:45;1;1;
64138;PMS5003;50435;43.700;-79.318;2022-09-20T16:21:14;3;3;
64138;PMS5003;50435;43.700;-79.318;2022-09-20T16:23:45;2;2;
64138;PMS5003;50435;43.700;-79.318;2022-09-20T16:26:14;3;3;
64138;PMS5003;50435;43.700;-79.318;2022-09-20T16:28:42;2;2;
64138;PMS5003;50435;43.700;-79.318;2022-09-20T16:31:27;1;1;
64138;PMS5003;50435;43.700;-79.318;2022-09-20T16:33:56;1;0;
64138;PMS5003;50435;43.700;-79.318;2022-09-20T16:36:24;3;3;
64138;PMS5003;50435;43.700;-79.318;2022-09-20T16:38:52;3;3;
64138;PMS5003;50435;43.700;-79.318;2022-09-20T16:41:19;4;2;
64138;PMS5003;50435;43.700;-79.318;2022-09-20T16:43:47;5;3;
64138;PMS5003;50435;43.700;-79.318;2022-09-20T16:46:14;3;3;
64138;PMS5003;50435;43.700;-79.318;2022-09-20T16:48:42;2;2;
64138;PMS5003;50435;43.700;-79.318;2022-09-20T16:51:10;2;2;
64138;PMS5003;50435;43.700;-79.318;2022-09-20T16:53:37;2;2;
64138;PMS5003;50435;43.700;-79.318;2022-09-20T16:56:05;2;2;
64138;PMS5003;50435;43.700;-79.318;2022-09-20T16:58:32;3;3;
64138;PMS5003;50435;43.700;-79.318;2022-09-20T17:01:03;3;3;
64138;PMS5003;50435;43.700;-79.318;2022-09-20T17:03:31;3;3;
64138;PMS5003;50435;43.700;-79.318;2022-09-20T17:06:00;1;1;
64138;PMS5003;50435;43.700;-79.318;2022-09-20T17:08:28;1;1;
64138;PMS5003;50435;43.700;-79.318;2022-09-20T17:10:57;3;2;